sensor_id;sensor_type;location;lat;lon;timestamp;pressure;altitude;pressure_sealevel;temperature;humidity
49393;BME280;35268;42.642;23.308;2023-02-22T00:01:17;93902.16;;;10.12;38.15
49393;BME280;35268;42.642;23.308;2023-02-22T00:04:00;93898.03;;;9.97;38.55
49393;BME280;35268;42.642;23.308;2023-02-22T00:06:25;93893.78;;;9.88;38.87
49393;BME280;35268;42.642;23.308;2023-02-22T00:08:51;93901.41;;;9.80;39.27
49393;BME280;35268;42.642;23.308;2023-02-22T00:11:17;93903.72;;;9.73;39.23
49393;BME280;35268;42.642;23.308;2023-02-22T00:13:44;93913.22;;;9.66;39.40
49393;BME280;35268;42.642;23.308;2023-02-22T00:16:14;93912.72;;;9.55;39.59
49393;BME280;35268;42.642;23.308;2023-02-22T00:18:40;93906.84;;;9.44;40.00
49393;BME280;35268;42.642;23.308;2023-02-22T00:21:06;93908.97;;;9.33;40.14
49393;BME280;35268;42.642;23.308;2023-02-22T00:23:35;93905.78;;;9.22;39.96
49393;BME280;35268;42.642;23.308;2023-02-22T00:26:05;93901.88;;;9.20;40.31
49393;BME280;35268;42.642;23.308;2023-02-22T00:28:34;93902.88;;;9.10;40.68
49393;BME280;35268;42.642;23.308;2023-02-22T00:31:01;93903.78;;;9.06;40.34
49393;BME280;35268;42.642;23.308;2023-02-22T00:33:26;93899.66;;;8.99;40.86
49393;BME280;35268;42.642;23.308;2023-02-22T00:35:51;93902.66;;;8.98;41.17
49393;BME280;35268;42.642;23.308;2023-02-22T00:38:18;93892.97;;;8.79;41.42
49393;BME280;35268;42.642;23.308;2023-02-22T00:40:43;93893.06;;;8.74;41.26
49393;BME280;35268;42.642;23.308;2023-02-22T00:43:09;93881.47;;;8.70;41.38
49393;BME280;35268;42.642;23.308;2023-02-22T00:45:36;93884.53;;;8.63;41.16
49393;BME280;35268;42.642;23.308;2023-02-22T00:48:03;93886.22;;;8.59;41.55
49393;BME280;35268;42.642;23.308;2023-02-22T00:50:30;93879.44;;;8.53;41.53
49393;BME280;35268;42.642;23.308;2023-02-22T00:52:58;93878.00;;;8.47;41.62
49393;BME280;35268;42.642;23.308;2023-02-22T00:55:28;93885.97;;;8.47;41.32
49393;BME280;35268;42.642;23.308;2023-02-22T00:57:54;93878.00;;;8.47;41.44
49393;BME280;35268;42.642;23.308;2023-02-22T01:00:26;93881.13;;;8.49;41.58
49393;BME280;35268;42.642;23.308;2023-02-22T01:02:52;93879.56;;;8.48;41.90
49393;BME280;35268;42.642;23.308;2023-02-22T01:05:22;93877.50;;;8.45;42.08
49393;BME280;35268;42.642;23.308;2023-02-22T01:07:49;93871.38;;;8.44;41.89
49393;BME280;35268;42.642;23.308;2023-02-22T01:10:17;93868.56;;;8.41;42.04
49393;BME280;35268;42.642;23.308;2023-02-22T01:12:44;93863.81;;;8.38;42.51
49393;BME280;35268;42.642;23.308;2023-02-22T01:15:10;93868.91;;;8.34;42.27
49393;BME280;35268;42.642;23.308;2023-02-22T01:17:36;93861.84;;;8.30;42.57
49393;BME280;35268;42.642;23.308;2023-02-22T01:20:04;93855.28;;;8.27;42.76
49393;BME280;35268;42.642;23.308;2023-02-22T01:22:34;93860.09;;;8.25;42.53
49393;BME280;35268;42.642;23.308;2023-02-22T01:25:02;93857.53;;;8.20;42.65
49393;BME280;35268;42.642;23.308;2023-02-22T01:27:28;93854.09;;;8.19;42.59
49393;BME280;35268;42.642;23.308;2023-02-22T01:29:54;93845.34;;;8.19;42.19
49393;BME280;35268;42.642;23.308;2023-02-22T01:32:19;93852.31;;;8.29;41.33
49393;BME280;35268;42.642;23.308;2023-02-22T01:34:44;93841.38;;;8.44;40.69
49393;BME280;35268;42.642;23.308;2023-02-22T01:37:10;93839.97;;;8.60;40.36
49393;BME280;35268;42.642;23.308;2023-02-22T01:39:36;93842.94;;;8.81;40.01
49393;BME280;35268;42.642;23.308;2023-02-22T01:42:01;93846.34;;;8.96;39.42
49393;BME280;35268;42.642;23.308;2023-02-22T01:44:32;93837.38;;;9.14;39.12
49393;BME280;35268;42.642;23.308;2023-02-22T01:47:00;93847.28;;;9.22;38.98
49393;BME280;35268;42.642;23.308;2023-02-22T01:49:33;93848.06;;;9.23;39.41
49393;BME280;35268;42.642;23.308;2023-02-22T01:52:04;93851.38;;;9.29;39.17
49393;BME280;35268;42.642;23.308;2023-02-22T01:54:36;93851.97;;;9.26;39.26
49393;BME280;35268;42.642;23.308;2023-02-22T01:57:10;93855.91;;;9.28;39.44
49393;BME280;35268;42.642;23.308;2023-02-22T01:59:46;93860.75;;;9.26;39.35
49393;BME280;35268;42.642;23.308;2023-02-22T02:02:13;93859.66;;;9.27;39.33
49393;BME280;35268;42.642;23.308;2023-02-22T02:04:39;93854.63;;;9.26;39.53
49393;BME280;35268;42.642;23.308;2023-02-22T02:07:08;93862.94;;;9.24;39.45
49393;BME280;35268;42.642;23.308;2023-02-22T02:12:07;93849.03;;;9.04;40.47
49393;BME280;35268;42.642;23.308;2023-02-22T02:14:33;93843.34;;;8.97;40.54
49393;BME280;35268;42.642;23.308;2023-02-22T02:17:09;93845.19;;;8.88;40.88
49393;BME280;35268;42.642;23.308;2023-02-22T02:20:00;93841.06;;;8.82;41.09
49393;BME280;35268;42.642;23.308;2023-02-22T02:25:53;93853.38;;;8.55;42.59
49393;BME280;35268;42.642;23.308;2023-02-22T02:34:18;93872.41;;;8.07;43.39
49393;BME280;35268;42.642;23.308;2023-02-22T02:39:38;93876.94;;;7.93;43.79
49393;BME280;35268;42.642;23.308;2023-02-22T02:42:10;93872.81;;;7.87;44.76
49393;BME280;35268;42.642;23.308;2023-02-22T02:45:01;93874.00;;;7.80;44.49
49393;BME280;35268;42.642;23.308;2023-02-22T02:47:33;93883.13;;;7.74;44.73
49393;BME280;35268;42.642;23.308;2023-02-22T02:50:08;93875.75;;;7.71;44.67
49393;BME280;35268;42.642;23.308;2023-02-22T02:52:35;93871.03;;;7.68;44.68
49393;BME280;35268;42.642;23.308;2023-02-22T02:55:03;93883.31;;;7.64;44.90
49393;BME280;35268;42.642;23.308;2023-02-22T02:57:30;93885.47;;;7.62;45.01
49393;BME280;35268;42.642;23.308;2023-02-22T02:59:56;93885.56;;;7.57;45.48
49393;BME280;35268;42.642;23.308;2023-02-22T03:18:29;93878.72;;;7.23;46.22
49393;BME280;35268;42.642;23.308;2023-02-22T03:23:47;93871.13;;;7.16;46.30
49393;BME280;35268;42.642;23.308;2023-02-22T03:26:21;93871.13;;;7.16;46.43
49393;BME280;35268;42.642;23.308;2023-02-22T03:28:48;93885.19;;;7.17;46.29
49393;BME280;35268;42.642;23.308;2023-02-22T03:31:21;93881.84;;;7.11;46.33
49393;BME280;35268;42.642;23.308;2023-02-22T03:34:25;93873.00;;;7.16;46.45
49393;BME280;35268;42.642;23.308;2023-02-22T03:37:22;93880.88;;;7.21;46.01
49393;BME280;35268;42.642;23.308;2023-02-22T03:39:52;93889.34;;;7.23;45.70
49393;BME280;35268;42.642;23.308;2023-02-22T03:42:28;93876.94;;;7.18;46.33
49393;BME280;35268;42.642;23.308;2023-02-22T03:44:56;93877.66;;;7.24;46.17
49393;BME280;35268;42.642;23.308;2023-02-22T03:47:31;93872.25;;;7.29;46.16
49393;BME280;35268;42.642;23.308;2023-02-22T03:50:04;93867.94;;;7.33;45.92
49393;BME280;35268;42.642;23.308;2023-02-22T03:52:33;93869.72;;;7.38;45.77
49393;BME280;35268;42.642;23.308;2023-02-22T03:55:00;93878.38;;;7.43;45.45
49393;BME280;35268;42.642;23.308;2023-02-22T03:57:32;93867.38;;;7.50;45.52
49393;BME280;35268;42.642;23.308;2023-02-22T04:00:01;93872.28;;;7.57;45.37
49393;BME280;35268;42.642;23.308;2023-02-22T04:02:29;93871.44;;;7.61;45.20
49393;BME280;35268;42.642;23.308;2023-02-22T04:04:55;93877.22;;;7.63;45.37
49393;BME280;35268;42.642;23.308;2023-02-22T04:07:20;93866.78;;;7.67;45.16
49393;BME280;35268;42.642;23.308;2023-02-22T04:09:46;93868.38;;;7.68;44.82
49393;BME280;35268;42.642;23.308;2023-02-22T04:12:11;93869.88;;;7.74;44.85
49393;BME280;35268;42.642;23.308;2023-02-22T04:14:36;93870.34;;;7.76;45.09
49393;BME280;35268;42.642;23.308;2023-02-22T04:17:02;93869.75;;;7.79;45.31
49393;BME280;35268;42.642;23.308;2023-02-22T04:19:27;93864.34;;;7.84;44.77
49393;BME280;35268;42.642;23.308;2023-02-22T04:21:53;93864.34;;;7.84;44.91
49393;BME280;35268;42.642;23.308;2023-02-22T04:24:18;93868.56;;;7.86;45.04
49393;BME280;35268;42.642;23.308;2023-02-22T04:26:44;93867.72;;;7.90;45.56
49393;BME280;35268;42.642;23.308;2023-02-22T04:29:09;93865.06;;;7.90;44.86
49393;BME280;35268;42.642;23.308;2023-02-22T04:31:35;93866.03;;;7.94;44.63
49393;BME280;35268;42.642;23.308;2023-02-22T04:34:00;93870.75;;;7.97;44.56
49393;BME280;35268;42.642;23.308;2023-02-22T04:36:27;93873.22;;;7.94;44.74
49393;BME280;35268;42.642;23.308;2023-02-22T04:38:53;93873.31;;;7.89;44.79
49393;BME280;35268;42.642;23.308;2023-02-22T04:41:19;93878.81;;;7.92;44.95
49393;BME280;35268;42.642;23.308;2023-02-22T04:43:45;93880.78;;;7.87;45.25
49393;BME280;35268;42.642;23.308;2023-02-22T04:46:11;93882.16;;;7.84;45.35
49393;BME280;35268;42.642;23.308;2023-02-22T04:48:37;93885.88;;;7.83;45.41
49393;BME280;35268;42.642;23.308;2023-02-22T04:51:03;93876.22;;;7.73;45.42
49393;BME280;35268;42.642;23.308;2023-02-22T04:53:29;93873.50;;;7.64;45.95
49393;BME280;35268;42.642;23.308;2023-02-22T04:55:54;93881.84;;;7.58;46.08
49393;BME280;35268;42.642;23.308;2023-02-22T04:58:20;93876.22;;;7.46;46.19
49393;BME280;35268;42.642;23.308;2023-02-22T05:00:45;93875.03;;;7.38;46.93
49393;BME280;35268;42.642;23.308;2023-02-22T05:03:11;93872.66;;;7.36;47.30
49393;BME280;35268;42.642;23.308;2023-02-22T05:05:36;93883.56;;;7.35;47.29
49393;BME280;35268;42.642;23.308;2023-02-22T05:08:02;93871.38;;;7.34;47.49
49393;BME280;35268;42.642;23.308;2023-02-22T05:10:28;93871.66;;;7.32;47.67
49393;BME280;35268;42.642;23.308;2023-02-22T05:12:53;93878.63;;;7.28;47.89
49393;BME280;35268;42.642;23.308;2023-02-22T05:15:20;93879.50;;;7.23;47.98
49393;BME280;35268;42.642;23.308;2023-02-22T05:17:46;93889.91;;;7.20;48.22
49393;BME280;35268;42.642;23.308;2023-02-22T05:20:19;93895.81;;;7.17;48.40
49393;BME280;35268;42.642;23.308;2023-02-22T05:22:46;93903.03;;;7.11;48.20
49393;BME280;35268;42.642;23.308;2023-02-22T05:25:11;93893.88;;;7.03;48.70
49393;BME280;35268;42.642;23.308;2023-02-22T05:27:36;93902.00;;;6.93;48.88
49393;BME280;35268;42.642;23.308;2023-02-22T05:30:03;93901.28;;;6.88;48.88
49393;BME280;35268;42.642;23.308;2023-02-22T05:32:28;93909.59;;;6.81;48.72
49393;BME280;35268;42.642;23.308;2023-02-22T05:34:54;93909.97;;;6.74;49.06
49393;BME280;35268;42.642;23.308;2023-02-22T05:37:19;93915.97;;;6.61;49.21
49393;BME280;35268;42.642;23.308;2023-02-22T05:39:45;93924.28;;;6.54;49.90
49393;BME280;35268;42.642;23.308;2023-02-22T05:42:10;93920.34;;;6.52;50.21
49393;BME280;35268;42.642;23.308;2023-02-22T05:44:36;93925.97;;;6.45;50.20
49393;BME280;35268;42.642;23.308;2023-02-22T05:47:05;93927.63;;;6.41;50.47
49393;BME280;35268;42.642;23.308;2023-02-22T05:49:30;93922.44;;;6.31;50.87
49393;BME280;35268;42.642;23.308;2023-02-22T05:51:56;93924.25;;;6.35;50.93
49393;BME280;35268;42.642;23.308;2023-02-22T05:54:24;93925.81;;;6.36;51.17
49393;BME280;35268;42.642;23.308;2023-02-22T05:56:49;93927.19;;;6.34;51.38
49393;BME280;35268;42.642;23.308;2023-02-22T05:59:15;93927.75;;;6.31;51.52
49393;BME280;35268;42.642;23.308;2023-02-22T06:01:40;93934.63;;;6.32;51.48
49393;BME280;35268;42.642;23.308;2023-02-22T06:04:06;93934.03;;;6.35;51.40
49393;BME280;35268;42.642;23.308;2023-02-22T06:06:31;93929.84;;;6.34;50.97
49393;BME280;35268;42.642;23.308;2023-02-22T06:08:57;93944.00;;;6.43;50.87
49393;BME280;35268;42.642;23.308;2023-02-22T06:11:22;93935.72;;;6.50;50.79
49393;BME280;35268;42.642;23.308;2023-02-22T06:13:50;93948.97;;;6.50;50.72
49393;BME280;35268;42.642;23.308;2023-02-22T06:16:16;93938.88;;;6.52;50.62
49393;BME280;35268;42.642;23.308;2023-02-22T06:18:42;93949.88;;;6.59;50.76
49393;BME280;35268;42.642;23.308;2023-02-22T06:21:07;93940.31;;;6.63;51.00
49393;BME280;35268;42.642;23.308;2023-02-22T06:23:35;93944.25;;;6.66;50.58
49393;BME280;35268;42.642;23.308;2023-02-22T06:26:00;93942.03;;;6.73;49.74
49393;BME280;35268;42.642;23.308;2023-02-22T06:28:26;93941.47;;;6.76;48.88
49393;BME280;35268;42.642;23.308;2023-02-22T06:30:51;93940.59;;;6.80;49.00
49393;BME280;35268;42.642;23.308;2023-02-22T06:33:16;93938.75;;;6.81;49.01
49393;BME280;35268;42.642;23.308;2023-02-22T06:35:42;93935.44;;;6.89;48.92
49393;BME280;35268;42.642;23.308;2023-02-22T06:38:07;93938.53;;;6.96;48.60
49393;BME280;35268;42.642;23.308;2023-02-22T06:40:33;93930.69;;;7.05;48.44
49393;BME280;35268;42.642;23.308;2023-02-22T06:42:58;93928.75;;;7.11;48.54
49393;BME280;35268;42.642;23.308;2023-02-22T06:45:24;93933.09;;;7.20;48.53
49393;BME280;35268;42.642;23.308;2023-02-22T06:47:50;93929.81;;;7.29;48.48
49393;BME280;35268;42.642;23.308;2023-02-22T06:52:43;93936.50;;;7.40;48.73
49393;BME280;35268;42.642;23.308;2023-02-22T06:55:08;93936.94;;;7.47;48.49
49393;BME280;35268;42.642;23.308;2023-02-22T06:57:34;93942.41;;;7.51;47.90
49393;BME280;35268;42.642;23.308;2023-02-22T06:59:59;93945.06;;;7.51;48.06
49393;BME280;35268;42.642;23.308;2023-02-22T07:02:25;93939.28;;;7.49;48.13
49393;BME280;35268;42.642;23.308;2023-02-22T07:04:50;93946.06;;;7.41;48.20
49393;BME280;35268;42.642;23.308;2023-02-22T07:07:15;93952.22;;;7.36;48.08
49393;BME280;35268;42.642;23.308;2023-02-22T07:09:45;93956.72;;;7.36;48.19
49393;BME280;35268;42.642;23.308;2023-02-22T07:12:13;93957.22;;;7.38;48.22
49393;BME280;35268;42.642;23.308;2023-02-22T07:14:38;93945.91;;;7.32;48.52
49393;BME280;35268;42.642;23.308;2023-02-22T07:17:04;93946.41;;;7.34;48.88
49393;BME280;35268;42.642;23.308;2023-02-22T07:19:29;93947.50;;;7.33;49.08
49393;BME280;35268;42.642;23.308;2023-02-22T07:21:55;93945.56;;;7.39;48.56
49393;BME280;35268;42.642;23.308;2023-02-22T07:24:24;93946.72;;;7.47;48.47
49393;BME280;35268;42.642;23.308;2023-02-22T07:26:49;93949.53;;;7.55;48.43
49393;BME280;35268;42.642;23.308;2023-02-22T07:29:14;93951.69;;;7.67;48.54
49393;BME280;35268;42.642;23.308;2023-02-22T07:31:40;93947.59;;;7.75;48.56
49393;BME280;35268;42.642;23.308;2023-02-22T07:34:05;93955.66;;;7.83;48.36
49393;BME280;35268;42.642;23.308;2023-02-22T07:36:30;93957.53;;;7.97;48.40
49393;BME280;35268;42.642;23.308;2023-02-22T07:38:56;93949.38;;;8.07;47.64
49393;BME280;35268;42.642;23.308;2023-02-22T07:41:21;93947.53;;;8.21;46.66
49393;BME280;35268;42.642;23.308;2023-02-22T07:43:47;93952.75;;;8.27;46.39
49393;BME280;35268;42.642;23.308;2023-02-22T07:46:12;93940.34;;;8.36;46.05
49393;BME280;35268;42.642;23.308;2023-02-22T07:48:37;93936.53;;;8.42;45.75
49393;BME280;35268;42.642;23.308;2023-02-22T07:51:04;93933.94;;;8.51;45.84
49393;BME280;35268;42.642;23.308;2023-02-22T07:53:31;93935.44;;;8.57;46.16
49393;BME280;35268;42.642;23.308;2023-02-22T07:56:01;93937.56;;;8.69;46.30
49393;BME280;35268;42.642;23.308;2023-02-22T07:58:28;93924.03;;;8.79;46.29
49393;BME280;35268;42.642;23.308;2023-02-22T08:00:54;93931.22;;;8.92;46.20
49393;BME280;35268;42.642;23.308;2023-02-22T08:03:37;93923.97;;;9.07;45.45
49393;BME280;35268;42.642;23.308;2023-02-22T08:06:34;93920.59;;;9.15;45.48
49393;BME280;35268;42.642;23.308;2023-02-22T08:09:00;93923.97;;;9.29;45.23
49393;BME280;35268;42.642;23.308;2023-02-22T08:11:25;93925.91;;;9.37;45.08
49393;BME280;35268;42.642;23.308;2023-02-22T08:13:51;93928.19;;;9.53;44.63
49393;BME280;35268;42.642;23.308;2023-02-22T08:16:16;93921.03;;;9.62;44.41
49393;BME280;35268;42.642;23.308;2023-02-22T08:18:42;93927.69;;;9.73;44.21
49393;BME280;35268;42.642;23.308;2023-02-22T08:21:07;93926.00;;;9.86;43.67
49393;BME280;35268;42.642;23.308;2023-02-22T08:23:33;93927.16;;;9.94;43.16
49393;BME280;35268;42.642;23.308;2023-02-22T08:26:10;93921.25;;;10.06;42.80
49393;BME280;35268;42.642;23.308;2023-02-22T08:28:40;93926.13;;;10.12;42.75
49393;BME280;35268;42.642;23.308;2023-02-22T08:31:05;93928.50;;;10.22;42.76
49393;BME280;35268;42.642;23.308;2023-02-22T08:33:32;93927.47;;;10.32;41.98
49393;BME280;35268;42.642;23.308;2023-02-22T08:36:00;93928.44;;;10.45;41.89
49393;BME280;35268;42.642;23.308;2023-02-22T08:38:28;93919.22;;;10.51;41.51
49393;BME280;35268;42.642;23.308;2023-02-22T08:40:54;93912.34;;;10.59;41.52
49393;BME280;35268;42.642;23.308;2023-02-22T08:43:21;93922.38;;;10.71;41.47
49393;BME280;35268;42.642;23.308;2023-02-22T08:45:47;93923.94;;;10.80;41.22
49393;BME280;35268;42.642;23.308;2023-02-22T08:48:13;93926.66;;;10.89;41.07
49393;BME280;35268;42.642;23.308;2023-02-22T08:50:39;93919.88;;;11.00;41.04
49393;BME280;35268;42.642;23.308;2023-02-22T08:53:06;93922.09;;;11.16;40.68
49393;BME280;35268;42.642;23.308;2023-02-22T08:55:35;93923.31;;;11.27;40.54
49393;BME280;35268;42.642;23.308;2023-02-22T08:58:03;93912.78;;;11.39;40.22
49393;BME280;35268;42.642;23.308;2023-02-22T09:00:30;93918.28;;;11.52;40.05
49393;BME280;35268;42.642;23.308;2023-02-22T09:02:58;93916.53;;;11.64;39.85
49393;BME280;35268;42.642;23.308;2023-02-22T09:05:24;93914.00;;;11.77;39.75
49393;BME280;35268;42.642;23.308;2023-02-22T09:07:49;93914.75;;;11.95;39.56
49393;BME280;35268;42.642;23.308;2023-02-22T09:10:24;93904.00;;;12.12;39.03
49393;BME280;35268;42.642;23.308;2023-02-22T09:12:50;93914.78;;;12.24;38.89
49393;BME280;35268;42.642;23.308;2023-02-22T09:15:16;93904.19;;;12.37;38.52
49393;BME280;35268;42.642;23.308;2023-02-22T09:17:45;93901.59;;;12.49;38.28
49393;BME280;35268;42.642;23.308;2023-02-22T09:20:10;93895.25;;;12.62;37.97
49393;BME280;35268;42.642;23.308;2023-02-22T09:22:37;93900.84;;;12.70;37.83
49393;BME280;35268;42.642;23.308;2023-02-22T09:25:03;93895.09;;;12.80;38.25
49393;BME280;35268;42.642;23.308;2023-02-22T09:27:28;93896.28;;;12.91;37.51
49393;BME280;35268;42.642;23.308;2023-02-22T09:29:54;93900.97;;;12.94;36.61
49393;BME280;35268;42.642;23.308;2023-02-22T09:32:21;93914.63;;;13.01;36.97
49393;BME280;35268;42.642;23.308;2023-02-22T09:34:46;93901.25;;;13.01;37.05
49393;BME280;35268;42.642;23.308;2023-02-22T09:37:12;93905.16;;;13.04;37.09
49393;BME280;35268;42.642;23.308;2023-02-22T09:39:37;93899.16;;;13.07;37.15
49393;BME280;35268;42.642;23.308;2023-02-22T09:42:19;93911.56;;;13.12;37.15
49393;BME280;35268;42.642;23.308;2023-02-22T09:44:57;93893.88;;;13.19;35.69
49393;BME280;35268;42.642;23.308;2023-02-22T09:47:35;93885.53;;;13.21;35.97
49393;BME280;35268;42.642;23.308;2023-02-22T09:50:04;93888.97;;;13.21;35.89
49393;BME280;35268;42.642;23.308;2023-02-22T09:55:16;93894.09;;;13.35;35.98
49393;BME280;35268;42.642;23.308;2023-02-22T09:57:50;93886.50;;;13.37;36.43
49393;BME280;35268;42.642;23.308;2023-02-22T10:00:21;93879.94;;;13.47;36.11
49393;BME280;35268;42.642;23.308;2023-02-22T10:05:38;93876.97;;;13.61;35.85
49393;BME280;35268;42.642;23.308;2023-02-22T10:08:16;93877.53;;;13.67;35.77
49393;BME280;35268;42.642;23.308;2023-02-22T10:10:44;93869.41;;;13.75;34.36
49393;BME280;35268;42.642;23.308;2023-02-22T10:13:37;93855.56;;;13.73;35.13
49393;BME280;35268;42.642;23.308;2023-02-22T10:16:13;93845.75;;;13.77;35.23
49393;BME280;35268;42.642;23.308;2023-02-22T10:24:31;93848.22;;;14.07;35.46
49393;BME280;35268;42.642;23.308;2023-02-22T10:27:06;93842.44;;;14.17;35.21
49393;BME280;35268;42.642;23.308;2023-02-22T10:32:00;93833.50;;;14.25;35.12
49393;BME280;35268;42.642;23.308;2023-02-22T10:34:31;93822.75;;;14.38;34.32
49393;BME280;35268;42.642;23.308;2023-02-22T10:37:20;93815.59;;;14.42;34.77
49393;BME280;35268;42.642;23.308;2023-02-22T10:39:48;93824.75;;;14.53;34.69
49393;BME280;35268;42.642;23.308;2023-02-22T10:42:20;93808.22;;;14.51;34.46
49393;BME280;35268;42.642;23.308;2023-02-22T10:44:48;93810.69;;;14.56;33.46
49393;BME280;35268;42.642;23.308;2023-02-22T10:47:14;93801.84;;;14.56;32.92
49393;BME280;35268;42.642;23.308;2023-02-22T10:49:49;93814.47;;;14.68;32.94
49393;BME280;35268;42.642;23.308;2023-02-22T10:52:27;93795.69;;;14.68;32.57
49393;BME280;35268;42.642;23.308;2023-02-22T10:54:56;93793.44;;;14.70;32.76
49393;BME280;35268;42.642;23.308;2023-02-22T10:57:25;93794.09;;;14.67;33.04
49393;BME280;35268;42.642;23.308;2023-02-22T10:59:52;93804.25;;;14.73;34.41
49393;BME280;35268;42.642;23.308;2023-02-22T11:02:26;93784.94;;;14.68;33.41
49393;BME280;35268;42.642;23.308;2023-02-22T11:04:55;93797.88;;;14.78;33.41
49393;BME280;35268;42.642;23.308;2023-02-22T11:09:58;93785.34;;;14.82;32.43
49393;BME280;35268;42.642;23.308;2023-02-22T11:14:50;93780.81;;;14.98;32.49
49393;BME280;35268;42.642;23.308;2023-02-22T11:17:22;93770.16;;;15.02;32.45
49393;BME280;35268;42.642;23.308;2023-02-22T11:19:49;93777.63;;;15.09;32.14
49393;BME280;35268;42.642;23.308;2023-02-22T11:22:40;93768.34;;;15.06;31.84
49393;BME280;35268;42.642;23.308;2023-02-22T11:25:06;93763.06;;;15.10;32.02
49393;BME280;35268;42.642;23.308;2023-02-22T11:27:41;93765.97;;;15.17;31.81
49393;BME280;35268;42.642;23.308;2023-02-22T11:32:47;93755.06;;;15.25;31.49
49393;BME280;35268;42.642;23.308;2023-02-22T11:35:34;93761.28;;;15.30;31.72
49393;BME280;35268;42.642;23.308;2023-02-22T11:38:19;93761.13;;;15.38;31.61
49393;BME280;35268;42.642;23.308;2023-02-22T11:41:02;93745.38;;;15.37;31.46
49393;BME280;35268;42.642;23.308;2023-02-22T11:43:28;93745.53;;;15.28;31.50
49393;BME280;35268;42.642;23.308;2023-02-22T11:46:04;93749.59;;;15.38;30.72
49393;BME280;35268;42.642;23.308;2023-02-22T11:48:33;93742.25;;;15.35;29.86
49393;BME280;35268;42.642;23.308;2023-02-22T11:58:44;93722.38;;;15.71;29.54
49393;BME280;35268;42.642;23.308;2023-02-22T12:17:45;93718.88;;;16.18;29.42
49393;BME280;35268;42.642;23.308;2023-02-22T12:20:19;93709.13;;;16.30;29.23
49393;BME280;35268;42.642;23.308;2023-02-22T12:23:11;93715.25;;;16.30;28.74
49393;BME280;35268;42.642;23.308;2023-02-22T12:25:45;93707.63;;;16.32;28.50
49393;BME280;35268;42.642;23.308;2023-02-22T12:28:18;93702.31;;;16.36;27.92
49393;BME280;35268;42.642;23.308;2023-02-22T12:30:54;93700.78;;;16.35;28.86
49393;BME280;35268;42.642;23.308;2023-02-22T12:33:26;93697.09;;;16.43;28.19
49393;BME280;35268;42.642;23.308;2023-02-22T12:35:55;93694.13;;;16.48;28.34
49393;BME280;35268;42.642;23.308;2023-02-22T12:38:23;93685.84;;;16.57;28.35
49393;BME280;35268;42.642;23.308;2023-02-22T12:43:49;93681.38;;;16.64;27.34
49393;BME280;35268;42.642;23.308;2023-02-22T12:46:17;93692.28;;;16.72;27.64
49393;BME280;35268;42.642;23.308;2023-02-22T12:56:33;93689.59;;;16.72;28.54
49393;BME280;35268;42.642;23.308;2023-02-22T13:01:45;93678.75;;;16.68;28.34
49393;BME280;35268;42.642;23.308;2023-02-22T13:04:14;93673.88;;;16.74;28.60
49393;BME280;35268;42.642;23.308;2023-02-22T13:06:53;93681.28;;;16.80;28.66
49393;BME280;35268;42.642;23.308;2023-02-22T13:12:43;93666.59;;;16.97;27.86
49393;BME280;35268;42.642;23.308;2023-02-22T13:15:29;93678.94;;;16.98;28.18
49393;BME280;35268;42.642;23.308;2023-02-22T13:23:44;93660.94;;;17.02;27.79
49393;BME280;35268;42.642;23.308;2023-02-22T13:29:01;93670.00;;;17.14;27.59
49393;BME280;35268;42.642;23.308;2023-02-22T13:56:47;93664.66;;;17.90;26.22
49393;BME280;35268;42.642;23.308;2023-02-22T13:59:39;93662.72;;;17.91;26.19
49393;BME280;35268;42.642;23.308;2023-02-22T14:02:05;93656.56;;;17.90;26.48
49393;BME280;35268;42.642;23.308;2023-02-22T14:04:37;93661.28;;;17.97;26.18
49393;BME280;35268;42.642;23.308;2023-02-22T14:09:53;93668.72;;;18.07;26.06
49393;BME280;35268;42.642;23.308;2023-02-22T14:15:14;93666.91;;;18.15;26.26
49393;BME280;35268;42.642;23.308;2023-02-22T14:17:42;93664.22;;;18.15;26.32
49393;BME280;35268;42.642;23.308;2023-02-22T14:20:18;93666.56;;;18.16;26.23
49393;BME280;35268;42.642;23.308;2023-02-22T14:22:47;93663.03;;;18.12;26.43
49393;BME280;35268;42.642;23.308;2023-02-22T14:27:57;93667.44;;;18.24;26.45
49393;BME280;35268;42.642;23.308;2023-02-22T14:30:26;93659.69;;;18.22;26.54
49393;BME280;35268;42.642;23.308;2023-02-22T14:32:52;93662.69;;;18.17;26.63
49393;BME280;35268;42.642;23.308;2023-02-22T14:35:19;93664.75;;;18.28;26.28
49393;BME280;35268;42.642;23.308;2023-02-22T14:37:54;93652.50;;;18.34;26.60
49393;BME280;35268;42.642;23.308;2023-02-22T14:40:33;93655.06;;;18.53;26.30
49393;BME280;35268;42.642;23.308;2023-02-22T14:45:30;93652.91;;;18.70;26.14
49393;BME280;35268;42.642;23.308;2023-02-22T14:48:11;93652.91;;;18.70;26.33
49393;BME280;35268;42.642;23.308;2023-02-22T14:50:42;93650.66;;;18.75;26.34
49393;BME280;35268;42.642;23.308;2023-02-22T14:53:21;93654.53;;;18.78;26.32
49393;BME280;35268;42.642;23.308;2023-02-22T14:55:55;93654.53;;;18.78;26.54
49393;BME280;35268;42.642;23.308;2023-02-22T14:58:27;93658.69;;;18.68;26.70
49393;BME280;35268;42.642;23.308;2023-02-22T15:00:53;93652.66;;;18.44;26.92
49393;BME280;35268;42.642;23.308;2023-02-22T15:05:46;93652.78;;;17.95;28.01
49393;BME280;35268;42.642;23.308;2023-02-22T15:08:15;93656.94;;;17.65;28.39
49393;BME280;35268;42.642;23.308;2023-02-22T15:15:47;93660.28;;;16.86;29.50
49393;BME280;35268;42.642;23.308;2023-02-22T15:18:26;93657.56;;;16.67;29.99
49393;BME280;35268;42.642;23.308;2023-02-22T15:20:57;93658.78;;;16.30;30.35
49393;BME280;35268;42.642;23.308;2023-02-22T15:23:25;93652.09;;;16.20;30.61
49393;BME280;35268;42.642;23.308;2023-02-22T15:25:54;93654.47;;;16.06;31.35
49393;BME280;35268;42.642;23.308;2023-02-22T15:28:22;93664.63;;;15.97;31.56
49393;BME280;35268;42.642;23.308;2023-02-22T15:30:48;93668.59;;;15.83;31.83
49393;BME280;35268;42.642;23.308;2023-02-22T15:33:17;93661.63;;;15.67;32.38
49393;BME280;35268;42.642;23.308;2023-02-22T15:35:56;93658.91;;;15.47;32.69